sensor_id;sensor_type;location;lat;lon;timestamp;pressure;altitude;pressure_sealevel;temperature;humidity
41862;BME280;27537;57.134;-2.136;2023-02-02T00:01:58;100913.16;;;5.87;100.00
41862;BME280;27537;57.134;-2.136;2023-02-02T00:04:26;100914.00;;;5.87;100.00
41862;BME280;27537;57.134;-2.136;2023-02-02T00:06:52;100919.22;;;5.86;100.00
41862;BME280;27537;57.134;-2.136;2023-02-02T00:09:19;100920.03;;;5.89;100.00
41862;BME280;27537;57.134;-2.136;2023-02-02T00:11:46;100925.31;;;5.86;100.00
41862;BME280;27537;57.134;-2.136;2023-02-02T00:14:13;100935.72;;;5.83;100.00
41862;BME280;27537;57.134;-2.136;2023-02-02T00:16:44;100930.56;;;5.82;100.00
41862;BME280;27537;57.134;-2.136;2023-02-02T00:19:16;100934.06;;;5.79;100.00
41862;BME280;27537;57.134;-2.136;2023-02-02T00:21:43;100928.88;;;5.79;100.00
41862;BME280;27537;57.134;-2.136;2023-02-02T00:24:10;100928.03;;;5.77;100.00
41862;BME280;27537;57.134;-2.136;2023-02-02T00:26:38;100933.28;;;5.74;100.00
41862;BME280;27537;57.134;-2.136;2023-02-02T00:29:05;100934.97;;;5.77;100.00
41862;BME280;27537;57.134;-2.136;2023-02-02T00:31:32;100934.97;;;5.77;100.00
41862;BME280;27537;57.134;-2.136;2023-02-02T00:33:59;100941.91;;;5.75;100.00
41862;BME280;27537;57.134;-2.136;2023-02-02T00:36:26;100929.78;;;5.74;100.00
41862;BME280;27537;57.134;-2.136;2023-02-02T00:38:52;100931.53;;;5.73;100.00
41862;BME280;27537;57.134;-2.136;2023-02-02T00:41:19;100928.06;;;5.76;100.00
41862;BME280;27537;57.134;-2.136;2023-02-02T00:43:46;100928.94;;;5.73;100.00
41862;BME280;27537;57.134;-2.136;2023-02-02T00:46:32;100927.25;;;5.70;100.00
41862;BME280;27537;57.134;-2.136;2023-02-02T00:48:59;100925.47;;;5.74;100.00
41862;BME280;27537;57.134;-2.136;2023-02-02T00:51:25;100933.31;;;5.71;100.00
41862;BME280;27537;57.134;-2.136;2023-02-02T00:53:52;100932.41;;;5.74;100.00
41862;BME280;27537;57.134;-2.136;2023-02-02T00:56:18;100925.53;;;5.69;100.00
41862;BME280;27537;57.134;-2.136;2023-02-02T00:58:45;100929.06;;;5.67;100.00
41862;BME280;27537;57.134;-2.136;2023-02-02T01:01:18;100923.78;;;5.70;100.00
41862;BME280;27537;57.134;-2.136;2023-02-02T01:03:47;100928.09;;;5.73;100.00
41862;BME280;27537;57.134;-2.136;2023-02-02T01:06:14;100922.06;;;5.72;100.00
41862;BME280;27537;57.134;-2.136;2023-02-02T01:08:42;100922.91;;;5.73;100.00
41862;BME280;27537;57.134;-2.136;2023-02-02T01:11:09;100925.53;;;5.71;100.00
41862;BME280;27537;57.134;-2.136;2023-02-02T01:13:35;100912.47;;;5.76;100.00
41862;BME280;27537;57.134;-2.136;2023-02-02T01:16:02;100908.13;;;5.76;100.00
41862;BME280;27537;57.134;-2.136;2023-02-02T01:18:30;100912.47;;;5.76;100.00
41862;BME280;27537;57.134;-2.136;2023-02-02T01:20:57;100906.47;;;5.70;100.00
41862;BME280;27537;57.134;-2.136;2023-02-02T01:23:24;100911.66;;;5.72;100.00
41862;BME280;27537;57.134;-2.136;2023-02-02T01:25:54;100905.53;;;5.75;100.00
41862;BME280;27537;57.134;-2.136;2023-02-02T01:28:22;100909.81;;;5.79;100.00
41862;BME280;27537;57.134;-2.136;2023-02-02T01:30:49;100902.00;;;5.79;100.00
41862;BME280;27537;57.134;-2.136;2023-02-02T01:33:16;100901.19;;;5.77;100.00
41862;BME280;27537;57.134;-2.136;2023-02-02T01:38:12;100890.06;;;5.68;100.00
41862;BME280;27537;57.134;-2.136;2023-02-02T01:40:46;100890.91;;;5.70;100.00
41862;BME280;27537;57.134;-2.136;2023-02-02T01:43:56;100884.94;;;5.64;100.00
41862;BME280;27537;57.134;-2.136;2023-02-02T01:46:03;100878.78;;;5.68;100.00
41862;BME280;27537;57.134;-2.136;2023-02-02T01:48:30;100874.53;;;5.64;100.00
41862;BME280;27537;57.134;-2.136;2023-02-02T01:50:59;100879.94;;;5.48;100.00
41862;BME280;27537;57.134;-2.136;2023-02-02T01:53:27;100876.53;;;5.45;100.00
41862;BME280;27537;57.134;-2.136;2023-02-02T01:55:54;100865.16;;;5.54;100.00
41862;BME280;27537;57.134;-2.136;2023-02-02T01:58:22;100865.13;;;5.55;100.00
41862;BME280;27537;57.134;-2.136;2023-02-02T02:00:50;100865.09;;;5.58;100.00
41862;BME280;27537;57.134;-2.136;2023-02-02T02:03:17;100869.50;;;5.53;100.00
41862;BME280;27537;57.134;-2.136;2023-02-02T02:09:08;100844.31;;;5.58;100.00
41862;BME280;27537;57.134;-2.136;2023-02-02T02:11:35;100844.31;;;5.58;100.00
41862;BME280;27537;57.134;-2.136;2023-02-02T02:14:03;100843.34;;;5.64;100.00
41862;BME280;27537;57.134;-2.136;2023-02-02T02:22:23;100845.97;;;5.64;100.00
41862;BME280;27537;57.134;-2.136;2023-02-02T02:25:43;100843.72;;;5.95;100.00
41862;BME280;27537;57.134;-2.136;2023-02-02T02:33:58;100836.69;;;6.02;100.00
41862;BME280;27537;57.134;-2.136;2023-02-02T02:41:37;100843.56;;;6.07;100.00
41862;BME280;27537;57.134;-2.136;2023-02-02T02:44:08;100834.97;;;6.02;100.00
41862;BME280;27537;57.134;-2.136;2023-02-02T02:46:36;100840.16;;;6.04;100.00
41862;BME280;27537;57.134;-2.136;2023-02-02T02:49:05;100834.97;;;6.02;100.00
41862;BME280;27537;57.134;-2.136;2023-02-02T02:54:13;100833.34;;;5.97;100.00
41862;BME280;27537;57.134;-2.136;2023-02-02T03:02:00;100813.19;;;6.10;100.00
41862;BME280;27537;57.134;-2.136;2023-02-02T03:06:59;100809.63;;;6.15;100.00
41862;BME280;27537;57.134;-2.136;2023-02-02T03:09:32;100807.88;;;6.14;100.00
41862;BME280;27537;57.134;-2.136;2023-02-02T03:12:01;100813.16;;;6.13;100.00
41862;BME280;27537;57.134;-2.136;2023-02-02T03:14:27;100812.25;;;6.14;100.00
41862;BME280;27537;57.134;-2.136;2023-02-02T03:16:54;100817.38;;;6.18;100.00
41862;BME280;27537;57.134;-2.136;2023-02-02T03:19:21;100814.97;;;6.07;100.00
41862;BME280;27537;57.134;-2.136;2023-02-02T03:21:47;100808.00;;;6.10;100.00
41862;BME280;27537;57.134;-2.136;2023-02-02T03:24:14;100806.19;;;6.13;100.00
41862;BME280;27537;57.134;-2.136;2023-02-02T03:26:40;100805.38;;;6.11;100.00
41862;BME280;27537;57.134;-2.136;2023-02-02T03:29:07;100805.44;;;6.06;100.00
41862;BME280;27537;57.134;-2.136;2023-02-02T03:31:34;100795.03;;;6.06;100.00
41862;BME280;27537;57.134;-2.136;2023-02-02T03:34:00;100792.41;;;6.10;100.00
41862;BME280;27537;57.134;-2.136;2023-02-02T03:36:30;100791.06;;;5.84;100.00
41862;BME280;27537;57.134;-2.136;2023-02-02T03:38:56;100792.84;;;5.80;100.00
41862;BME280;27537;57.134;-2.136;2023-02-02T03:41:32;100790.88;;;5.95;100.00
41862;BME280;27537;57.134;-2.136;2023-02-02T03:43:58;100790.00;;;5.99;100.00
41862;BME280;27537;57.134;-2.136;2023-02-02T03:46:25;100786.75;;;5.84;100.00
41862;BME280;27537;57.134;-2.136;2023-02-02T03:48:51;100796.94;;;5.95;100.00
41862;BME280;27537;57.134;-2.136;2023-02-02T03:51:18;100792.50;;;6.03;100.00
41862;BME280;27537;57.134;-2.136;2023-02-02T03:53:58;100796.00;;;6.01;100.00
41862;BME280;27537;57.134;-2.136;2023-02-02T03:56:28;100784.69;;;6.03;100.00
41862;BME280;27537;57.134;-2.136;2023-02-02T04:01:46;100781.22;;;6.04;100.00
41862;BME280;27537;57.134;-2.136;2023-02-02T04:04:13;100780.59;;;5.88;100.00
41862;BME280;27537;57.134;-2.136;2023-02-02T04:06:40;100779.09;;;5.75;100.00
41862;BME280;27537;57.134;-2.136;2023-02-02T04:09:06;100781.56;;;5.84;100.00
41862;BME280;27537;57.134;-2.136;2023-02-02T04:11:34;100782.22;;;5.97;100.00
41862;BME280;27537;57.134;-2.136;2023-02-02T04:14:00;100777.00;;;5.99;100.00
41862;BME280;27537;57.134;-2.136;2023-02-02T04:16:27;100783.72;;;6.09;100.00
41862;BME280;27537;57.134;-2.136;2023-02-02T04:18:56;100786.38;;;6.07;100.00
41862;BME280;27537;57.134;-2.136;2023-02-02T04:21:22;100785.50;;;6.05;100.00
41862;BME280;27537;57.134;-2.136;2023-02-02T04:23:49;100782.03;;;6.08;100.00
41862;BME280;27537;57.134;-2.136;2023-02-02T04:26:15;100780.28;;;6.08;100.00
41862;BME280;27537;57.134;-2.136;2023-02-02T04:28:42;100779.47;;;6.05;100.00
41862;BME280;27537;57.134;-2.136;2023-02-02T04:31:08;100777.81;;;6.01;100.00
41862;BME280;27537;57.134;-2.136;2023-02-02T04:33:35;100769.84;;;6.10;100.00
41862;BME280;27537;57.134;-2.136;2023-02-02T04:36:02;100771.69;;;6.03;100.00
41862;BME280;27537;57.134;-2.136;2023-02-02T04:38:29;100769.97;;;6.04;100.00
41862;BME280;27537;57.134;-2.136;2023-02-02T04:40:55;100774.28;;;6.03;100.00
41862;BME280;27537;57.134;-2.136;2023-02-02T04:43:22;100769.91;;;6.07;100.00
41862;BME280;27537;57.134;-2.136;2023-02-02T04:45:53;100754.41;;;6.02;100.00
41862;BME280;27537;57.134;-2.136;2023-02-02T04:48:20;100760.44;;;6.04;100.00
41862;BME280;27537;57.134;-2.136;2023-02-02T04:50:47;100756.06;;;6.05;100.00
41862;BME280;27537;57.134;-2.136;2023-02-02T04:53:13;100759.53;;;6.05;100.00
41862;BME280;27537;57.134;-2.136;2023-02-02T04:55:40;100756.91;;;6.07;100.00
41862;BME280;27537;57.134;-2.136;2023-02-02T04:58:06;100755.19;;;6.07;100.00
41862;BME280;27537;57.134;-2.136;2023-02-02T05:00:33;100751.59;;;6.13;100.00
41862;BME280;27537;57.134;-2.136;2023-02-02T05:02:59;100745.63;;;6.08;100.00
41862;BME280;27537;57.134;-2.136;2023-02-02T05:05:26;100741.16;;;6.16;100.00
41862;BME280;27537;57.134;-2.136;2023-02-02T05:07:53;100736.75;;;6.20;100.00
41862;BME280;27537;57.134;-2.136;2023-02-02T05:10:19;100731.63;;;6.15;100.00
41862;BME280;27537;57.134;-2.136;2023-02-02T05:12:46;100734.03;;;6.24;100.00
41862;BME280;27537;57.134;-2.136;2023-02-02T05:15:13;100732.22;;;6.30;100.00
41862;BME280;27537;57.134;-2.136;2023-02-02T05:17:39;100729.56;;;6.33;100.00
41862;BME280;27537;57.134;-2.136;2023-02-02T05:20:06;100735.56;;;6.36;100.00
41862;BME280;27537;57.134;-2.136;2023-02-02T05:22:33;100736.38;;;6.38;100.00
41862;BME280;27537;57.134;-2.136;2023-02-02T05:25:00;100734.59;;;6.40;100.00
41862;BME280;27537;57.134;-2.136;2023-02-02T05:27:27;100734.75;;;6.33;100.00
41862;BME280;27537;57.134;-2.136;2023-02-02T05:29:54;100733.94;;;6.31;100.00
41862;BME280;27537;57.134;-2.136;2023-02-02T05:32:20;100734.81;;;6.30;100.00
41862;BME280;27537;57.134;-2.136;2023-02-02T05:34:47;100733.81;;;6.35;100.00
41862;BME280;27537;57.134;-2.136;2023-02-02T05:37:13;100732.91;;;6.39;100.00
41862;BME280;27537;57.134;-2.136;2023-02-02T05:39:40;100725.94;;;6.40;100.00
41862;BME280;27537;57.134;-2.136;2023-02-02T05:42:06;100729.38;;;6.40;100.00
41862;BME280;27537;57.134;-2.136;2023-02-02T05:44:33;100725.91;;;6.41;100.00
41862;BME280;27537;57.134;-2.136;2023-02-02T05:47:00;100723.31;;;6.41;100.00
41862;BME280;27537;57.134;-2.136;2023-02-02T05:49:26;100731.22;;;6.35;100.00
41862;BME280;27537;57.134;-2.136;2023-02-02T05:51:54;100715.63;;;6.35;100.00
41862;BME280;27537;57.134;-2.136;2023-02-02T05:54:22;100725.94;;;6.40;100.00
41862;BME280;27537;57.134;-2.136;2023-02-02T05:56:49;100725.94;;;6.40;100.00
41862;BME280;27537;57.134;-2.136;2023-02-02T05:59:17;100714.59;;;6.42;100.00
41862;BME280;27537;57.134;-2.136;2023-02-02T06:01:44;100707.94;;;6.31;100.00
41862;BME280;27537;57.134;-2.136;2023-02-02T06:04:11;100712.09;;;6.39;100.00
41862;BME280;27537;57.134;-2.136;2023-02-02T06:06:38;100712.97;;;6.38;100.00
41862;BME280;27537;57.134;-2.136;2023-02-02T06:09:05;100702.53;;;6.40;100.00
41862;BME280;27537;57.134;-2.136;2023-02-02T06:11:32;100707.00;;;6.33;100.00
41862;BME280;27537;57.134;-2.136;2023-02-02T06:13:59;100708.59;;;6.39;100.00
41862;BME280;27537;57.134;-2.136;2023-02-02T06:16:25;100691.13;;;6.45;100.00
41862;BME280;27537;57.134;-2.136;2023-02-02T06:18:52;100697.44;;;6.34;100.00
41862;BME280;27537;57.134;-2.136;2023-02-02T06:21:19;100695.53;;;6.43;100.00
41862;BME280;27537;57.134;-2.136;2023-02-02T06:23:48;100693.69;;;6.49;100.00
41862;BME280;27537;57.134;-2.136;2023-02-02T06:26:17;100689.34;;;6.47;100.00
41862;BME280;27537;57.134;-2.136;2023-02-02T06:28:48;100682.50;;;6.43;100.00
41862;BME280;27537;57.134;-2.136;2023-02-02T06:31:15;100671.25;;;6.43;100.00
41862;BME280;27537;57.134;-2.136;2023-02-02T06:33:45;100678.75;;;6.57;100.00
41862;BME280;27537;57.134;-2.136;2023-02-02T06:36:11;100678.88;;;6.52;100.00
41862;BME280;27537;57.134;-2.136;2023-02-02T06:38:38;100679.63;;;6.57;100.00
41862;BME280;27537;57.134;-2.136;2023-02-02T06:41:05;100677.94;;;6.55;100.00
41862;BME280;27537;57.134;-2.136;2023-02-02T06:43:32;100681.16;;;6.66;100.00
41862;BME280;27537;57.134;-2.136;2023-02-02T06:45:59;100674.56;;;6.50;100.00
41862;BME280;27537;57.134;-2.136;2023-02-02T06:48:26;100674.47;;;6.54;100.00
41862;BME280;27537;57.134;-2.136;2023-02-02T06:50:53;100671.81;;;6.57;100.00
41862;BME280;27537;57.134;-2.136;2023-02-02T06:53:19;100668.97;;;6.68;100.00
41862;BME280;27537;57.134;-2.136;2023-02-02T06:55:53;100676.78;;;6.68;100.00
41862;BME280;27537;57.134;-2.136;2023-02-02T06:58:19;100673.16;;;6.75;100.00
41862;BME280;27537;57.134;-2.136;2023-02-02T07:00:46;100661.78;;;6.78;100.00
41862;BME280;27537;57.134;-2.136;2023-02-02T07:03:14;100660.03;;;6.80;100.00
41862;BME280;27537;57.134;-2.136;2023-02-02T07:05:41;100654.91;;;6.77;100.00
41862;BME280;27537;57.134;-2.136;2023-02-02T07:08:07;100671.41;;;6.74;100.00
41862;BME280;27537;57.134;-2.136;2023-02-02T07:10:37;100661.00;;;6.74;100.00
41862;BME280;27537;57.134;-2.136;2023-02-02T07:13:24;100663.44;;;6.83;100.00
41862;BME280;27537;57.134;-2.136;2023-02-02T07:15:51;100660.69;;;6.88;100.00
41862;BME280;27537;57.134;-2.136;2023-02-02T07:18:19;100662.44;;;6.88;100.00
41862;BME280;27537;57.134;-2.136;2023-02-02T07:20:46;100663.31;;;6.88;100.00
41862;BME280;27537;57.134;-2.136;2023-02-02T07:23:13;100657.28;;;6.86;100.00
41862;BME280;27537;57.134;-2.136;2023-02-02T07:25:39;100659.06;;;6.84;100.00
41862;BME280;27537;57.134;-2.136;2023-02-02T07:28:09;100652.84;;;6.90;100.00
41862;BME280;27537;57.134;-2.136;2023-02-02T07:30:35;100652.75;;;6.94;100.00
41862;BME280;27537;57.134;-2.136;2023-02-02T07:33:02;100646.84;;;6.88;100.00
41862;BME280;27537;57.134;-2.136;2023-02-02T07:35:28;100649.16;;;7.00;100.00
41862;BME280;27537;57.134;-2.136;2023-02-02T07:37:55;100650.19;;;6.93;100.00
41862;BME280;27537;57.134;-2.136;2023-02-02T07:40:22;100644.28;;;6.86;100.00
41862;BME280;27537;57.134;-2.136;2023-02-02T07:42:49;100640.66;;;6.92;100.00
41862;BME280;27537;57.134;-2.136;2023-02-02T07:45:15;100643.09;;;6.99;100.00
41862;BME280;27537;57.134;-2.136;2023-02-02T07:47:59;100642.09;;;7.05;100.00
41862;BME280;27537;57.134;-2.136;2023-02-02T07:50:26;100638.78;;;6.98;100.00
41862;BME280;27537;57.134;-2.136;2023-02-02T07:52:53;100636.16;;;6.98;100.00
41862;BME280;27537;57.134;-2.136;2023-02-02T07:55:20;100636.13;;;7.00;100.00
41862;BME280;27537;57.134;-2.136;2023-02-02T07:57:46;100629.94;;;7.04;100.00
41862;BME280;27537;57.134;-2.136;2023-02-02T08:00:13;100644.66;;;7.07;100.00
41862;BME280;27537;57.134;-2.136;2023-02-02T08:02:40;100634.31;;;7.03;100.00
41862;BME280;27537;57.134;-2.136;2023-02-02T08:05:06;100631.50;;;7.11;100.00
41862;BME280;27537;57.134;-2.136;2023-02-02T08:07:33;100619.50;;;7.06;100.00
41862;BME280;27537;57.134;-2.136;2023-02-02T08:10:00;100625.53;;;7.08;100.00
41862;BME280;27537;57.134;-2.136;2023-02-02T08:12:26;100618.66;;;7.05;100.00
41862;BME280;27537;57.134;-2.136;2023-02-02T08:14:53;100618.50;;;7.11;100.00
41862;BME280;27537;57.134;-2.136;2023-02-02T08:17:20;100620.31;;;7.08;100.00
41862;BME280;27537;57.134;-2.136;2023-02-02T08:19:48;100616.94;;;7.04;100.00
41862;BME280;27537;57.134;-2.136;2023-02-02T08:22:14;100620.16;;;7.15;100.00
41862;BME280;27537;57.134;-2.136;2023-02-02T08:24:41;100615.72;;;7.19;100.00
41862;BME280;27537;57.134;-2.136;2023-02-02T08:27:08;100613.91;;;7.21;100.00
41862;BME280;27537;57.134;-2.136;2023-02-02T08:29:35;100615.56;;;7.23;100.00
41862;BME280;27537;57.134;-2.136;2023-02-02T08:32:02;100613.88;;;7.22;100.00
41862;BME280;27537;57.134;-2.136;2023-02-02T08:34:29;100613.78;;;7.26;100.00
41862;BME280;27537;57.134;-2.136;2023-02-02T08:36:55;100613.78;;;7.26;100.00
41862;BME280;27537;57.134;-2.136;2023-02-02T08:39:22;100611.34;;;7.19;100.00
41862;BME280;27537;57.134;-2.136;2023-02-02T08:41:49;100613.88;;;7.22;100.00
41862;BME280;27537;57.134;-2.136;2023-02-02T08:44:16;100598.97;;;7.28;100.00
41862;BME280;27537;57.134;-2.136;2023-02-02T08:46:44;100599.88;;;7.27;100.00
41862;BME280;27537;57.134;-2.136;2023-02-02T08:49:11;100604.25;;;7.26;100.00
41862;BME280;27537;57.134;-2.136;2023-02-02T08:51:38;100599.63;;;7.36;100.00
41862;BME280;27537;57.134;-2.136;2023-02-02T08:54:05;100598.81;;;7.34;100.00
41862;BME280;27537;57.134;-2.136;2023-02-02T08:56:34;100597.09;;;7.33;100.00
41862;BME280;27537;57.134;-2.136;2023-02-02T08:59:01;100595.13;;;7.43;100.00
41862;BME280;27537;57.134;-2.136;2023-02-02T09:01:31;100592.59;;;7.39;100.00
41862;BME280;27537;57.134;-2.136;2023-02-02T09:03:59;100590.97;;;7.35;100.00
41862;BME280;27537;57.134;-2.136;2023-02-02T09:06:27;100588.91;;;7.47;100.00
41862;BME280;27537;57.134;-2.136;2023-02-02T09:08:54;100580.06;;;7.52;100.00
41862;BME280;27537;57.134;-2.136;2023-02-02T09:11:21;100580.94;;;7.53;100.00
41862;BME280;27537;57.134;-2.136;2023-02-02T09:13:48;100589.50;;;7.58;100.00
41862;BME280;27537;57.134;-2.136;2023-02-02T09:16:16;100583.28;;;7.62;100.00
41862;BME280;27537;57.134;-2.136;2023-02-02T09:18:43;100575.41;;;7.65;100.00
41862;BME280;27537;57.134;-2.136;2023-02-02T09:21:11;100569.25;;;7.68;100.00
41862;BME280;27537;57.134;-2.136;2023-02-02T09:23:39;100566.59;;;7.69;100.00
41862;BME280;27537;57.134;-2.136;2023-02-02T09:26:10;100563.78;;;7.75;100.00
41862;BME280;27537;57.134;-2.136;2023-02-02T09:28:37;100565.41;;;7.81;100.00
41862;BME280;27537;57.134;-2.136;2023-02-02T09:31:04;100561.16;;;7.77;100.00
41862;BME280;27537;57.134;-2.136;2023-02-02T09:33:31;100562.75;;;7.83;100.00
41862;BME280;27537;57.134;-2.136;2023-02-02T09:36:12;100556.34;;;7.93;100.00
41862;BME280;27537;57.134;-2.136;2023-02-02T09:38:39;100558.16;;;7.91;100.00
41862;BME280;27537;57.134;-2.136;2023-02-02T09:49:36;100535.44;;;7.94;100.00
41862;BME280;27537;57.134;-2.136;2023-02-02T09:52:11;100538.47;;;8.09;100.00
41862;BME280;27537;57.134;-2.136;2023-02-02T09:54:43;100534.91;;;8.13;100.00
41862;BME280;27537;57.134;-2.136;2023-02-02T09:57:16;100530.50;;;8.15;100.00
41862;BME280;27537;57.134;-2.136;2023-02-02T09:59:45;100529.44;;;8.21;100.00
41862;BME280;27537;57.134;-2.136;2023-02-02T10:02:17;100534.28;;;8.33;100.00
41862;BME280;27537;57.134;-2.136;2023-02-02T10:04:45;100534.38;;;8.30;100.00
41862;BME280;27537;57.134;-2.136;2023-02-02T10:07:15;100528.94;;;8.38;100.00
41862;BME280;27537;57.134;-2.136;2023-02-02T10:13:00;100532.03;;;8.50;100.00
41862;BME280;27537;57.134;-2.136;2023-02-02T10:18:16;100513.81;;;8.49;100.00
41862;BME280;27537;57.134;-2.136;2023-02-02T10:20:50;100510.88;;;8.58;100.00
41862;BME280;27537;57.134;-2.136;2023-02-02T10:31:26;100496.72;;;8.65;100.00
41862;BME280;27537;57.134;-2.136;2023-02-02T10:34:42;100488.56;;;8.74;100.00
41862;BME280;27537;57.134;-2.136;2023-02-02T10:41:50;100489.88;;;8.88;100.00
41862;BME280;27537;57.134;-2.136;2023-02-02T10:44:41;100489.66;;;8.94;100.00
41862;BME280;27537;57.134;-2.136;2023-02-02T10:47:12;100486.38;;;8.89;100.00
41862;BME280;27537;57.134;-2.136;2023-02-02T10:49:41;100490.25;;;9.02;100.00
41862;BME280;27537;57.134;-2.136;2023-02-02T10:52:15;100487.72;;;8.99;100.00
41862;BME280;27537;57.134;-2.136;2023-02-02T10:57:36;100492.84;;;9.02;100.00
41862;BME280;27537;57.134;-2.136;2023-02-02T11:02:36;100492.03;;;9.25;100.00
41862;BME280;27537;57.134;-2.136;2023-02-02T11:05:02;100490.59;;;9.17;100.00
41862;BME280;27537;57.134;-2.136;2023-02-02T11:07:48;100487.78;;;9.23;100.00
41862;BME280;27537;57.134;-2.136;2023-02-02T11:10:15;100483.06;;;9.32;100.00
41862;BME280;27537;57.134;-2.136;2023-02-02T11:12:44;100478.63;;;9.35;100.00
41862;BME280;27537;57.134;-2.136;2023-02-02T11:15:25;100481.19;;;9.36;100.00
41862;BME280;27537;57.134;-2.136;2023-02-02T11:17:52;100484.97;;;9.53;100.00
41862;BME280;27537;57.134;-2.136;2023-02-02T11:20:21;100487.75;;;9.48;100.00
41862;BME280;27537;57.134;-2.136;2023-02-02T11:22:49;100484.09;;;9.52;100.00
41862;BME280;27537;57.134;-2.136;2023-02-02T11:25:33;100484.72;;;9.59;100.00
41862;BME280;27537;57.134;-2.136;2023-02-02T11:28:10;100483.09;;;9.56;100.00
41862;BME280;27537;57.134;-2.136;2023-02-02T11:30:47;100485.91;;;9.50;100.00
41862;BME280;27537;57.134;-2.136;2023-02-02T11:33:25;100484.84;;;9.56;100.00
41862;BME280;27537;57.134;-2.136;2023-02-02T11:35:58;100487.38;;;9.81;100.00
41862;BME280;27537;57.134;-2.136;2023-02-02T11:38:24;100474.03;;;9.65;100.00
41862;BME280;27537;57.134;-2.136;2023-02-02T11:40:56;100484.84;;;9.79;100.00
41862;BME280;27537;57.134;-2.136;2023-02-02T11:43:24;100476.63;;;9.88;100.00
41862;BME280;27537;57.134;-2.136;2023-02-02T11:45:53;100479.31;;;9.87;100.00
41862;BME280;27537;57.134;-2.136;2023-02-02T11:48:22;100473.22;;;9.86;100.00
41862;BME280;27537;57.134;-2.136;2023-02-02T11:50:51;100470.41;;;9.91;100.00
41862;BME280;27537;57.134;-2.136;2023-02-02T11:55:48;100470.66;;;10.07;100.00
41862;BME280;27537;57.134;-2.136;2023-02-02T12:00:48;100461.72;;;10.13;100.00
41862;BME280;27537;57.134;-2.136;2023-02-02T12:03:22;100456.19;;;10.20;100.00
41862;BME280;27537;57.134;-2.136;2023-02-02T12:05:49;100457.31;;;10.15;100.00
41862;BME280;27537;57.134;-2.136;2023-02-02T12:08:16;100459.78;;;10.18;100.00
41862;BME280;27537;57.134;-2.136;2023-02-02T12:10:47;100453.75;;;10.16;100.00
41862;BME280;27537;57.134;-2.136;2023-02-02T12:13:18;100456.19;;;10.20;100.00
41862;BME280;27537;57.134;-2.136;2023-02-02T12:26:31;100437.19;;;10.37;100.00
41862;BME280;27537;57.134;-2.136;2023-02-02T12:31:37;100426.00;;;10.34;100.00
41862;BME280;27537;57.134;-2.136;2023-02-02T12:47:07;100414.38;;;10.41;100.00
41862;BME280;27537;57.134;-2.136;2023-02-02T13:05:48;100397.91;;;10.59;100.00
41862;BME280;27537;57.134;-2.136;2023-02-02T13:08:23;100396.25;;;10.57;100.00
41862;BME280;27537;57.134;-2.136;2023-02-02T13:10:52;100390.56;;;10.47;100.00
41862;BME280;27537;57.134;-2.136;2023-02-02T13:13:24;100395.09;;;10.43;100.00
41862;BME280;27537;57.134;-2.136;2023-02-02T13:16:04;100395.09;;;10.43;100.00
41862;BME280;27537;57.134;-2.136;2023-02-02T13:18:34;100390.69;;;10.44;100.00
41862;BME280;27537;57.134;-2.136;2023-02-02T13:21:06;100386.97;;;10.50;100.00
41862;BME280;27537;57.134;-2.136;2023-02-02T13:23:38;100372.25;;;10.47;100.00
41862;BME280;27537;57.134;-2.136;2023-02-02T13:31:19;100371.13;;;10.53;100.00
41862;BME280;27537;57.134;-2.136;2023-02-02T13:33:50;100370.06;;;10.57;100.00
41862;BME280;27537;57.134;-2.136;2023-02-02T13:36:22;100370.78;;;10.60;100.00
41862;BME280;27537;57.134;-2.136;2023-02-02T13:38:57;100368.50;;;10.53;100.00
41862;BME280;27537;57.134;-2.136;2023-02-02T13:41:25;100361.44;;;10.55;100.00
41862;BME280;27537;57.134;-2.136;2023-02-02T13:46:30;100362.56;;;10.70;100.00
41862;BME280;27537;57.134;-2.136;2023-02-02T13:59:46;100351.38;;;10.85;100.00
41862;BME280;27537;57.134;-2.136;2023-02-02T14:02:26;100354.00;;;10.85;100.00
41862;BME280;27537;57.134;-2.136;2023-02-02T14:04:56;100351.38;;;10.85;100.00
41862;BME280;27537;57.134;-2.136;2023-02-02T14:07:42;100343.75;;;10.80;100.00
41862;BME280;27537;57.134;-2.136;2023-02-02T14:10:29;100341.78;;;10.65;100.00
41862;BME280;27537;57.134;-2.136;2023-02-02T14:13:17;100342.13;;;10.57;100.00
41862;BME280;27537;57.134;-2.136;2023-02-02T14:16:04;100332.03;;;10.69;100.00
41862;BME280;27537;57.134;-2.136;2023-02-02T14:23:59;100328.66;;;10.46;100.00
41862;BME280;27537;57.134;-2.136;2023-02-02T14:26:42;100325.38;;;10.61;100.00
41862;BME280;27537;57.134;-2.136;2023-02-02T14:45:33;100273.72;;;10.65;100.00
41862;BME280;27537;57.134;-2.136;2023-02-02T14:48:08;100284.91;;;10.69;100.00
41862;BME280;27537;57.134;-2.136;2023-02-02T14:53:06;100274.63;;;10.64;100.00
41862;BME280;27537;57.134;-2.136;2023-02-02T15:01:06;100274.97;;;10.56;100.00
41862;BME280;27537;57.134;-2.136;2023-02-02T15:06:05;100254.97;;;10.55;100.00
41862;BME280;27537;57.134;-2.136;2023-02-02T15:08:34;100254.88;;;10.57;100.00
41862;BME280;27537;57.134;-2.136;2023-02-02T15:11:01;100253.19;;;10.56;100.00
41862;BME280;27537;57.134;-2.136;2023-02-02T15:13:49;100247.22;;;10.33;100.00
41862;BME280;27537;57.134;-2.136;2023-02-02T15:16:21;100257.91;;;10.48;100.00
41862;BME280;27537;57.134;-2.136;2023-02-02T15:18:53;100252.91;;;10.43;100.00
41862;BME280;27537;57.134;-2.136;2023-02-02T15:21:23;100241.50;;;10.44;100.00
41862;BME280;27537;57.134;-2.136;2023-02-02T15:23:51;100257.91;;;10.48;100.00
41862;BME280;27537;57.134;-2.136;2023-02-02T15:26:24;100261.19;;;10.53;100.00
41862;BME280;27537;57.134;-2.136;2023-02-02T15:29:04;100272.97;;;10.42;100.00
41862;BME280;27537;57.134;-2.136;2023-02-02T15:31:36;100281.59;;;10.44;100.00
41862;BME280;27537;57.134;-2.136;2023-02-02T15:37:14;100303.53;;;10.62;100.00
41862;BME280;27537;57.134;-2.136;2023-02-02T15:39:47;100301.03;;;10.59;100.00